Station: Coonawarra  

  Atmospheric Gas Attenuation - ITU Rec 676-11   ----------------- dB/100km -----------------
Date Time Temp RH % AH g/m3 Dew Point Wind Direction Speed kph Gust kph Barometer mB Rainfall Since 9am 24GHz 47GHz 76GHz 122GHz 134GHz 241GHz
08/05 16:10 14.3 89 10.93 12.5 17 20 1027.4 0.4 24.5 30.2 50.0 131.4 131.1 452.7
08/05 16:00 14.7 84 10.58 12 19 24 1027.3 0.4 23.8 29.5 48.2 126.6 125.4 433.0
08/05 15:50 14.7 83 10.45 11.8 19 24 1027.2 0.4 23.5 29.2 47.6 125.2 123.6 426.5
08/05 15:40 14.7 84 10.58 12 22 26 1027.1 0.4 23.8 29.5 48.2 126.6 125.4 432.9
08/05 15:30 15.5 81 10.71 12.3 24 32 1027 0.4 24.0 29.4 48.2 126.8 125.9 434.8
08/05 15:20 15.1 86 11.09 12.8 17 20 1027 0.4 24.8 30.2 50.1 131.8 132.0 455.8
08/05 15:10 14.1 88 10.68 12.1 28 32 1027 0.4 24.0 29.8 49.0 128.8 127.8 441.2
08/05 15:00 14.6 86 10.76 12.3 19 30 1027 0.4 24.1 29.8 49.0 128.8 128.1 442.3
08/05 14:50 14.9 88 11.22 12.9 20 26 1027 0.4 25.1 30.5 50.8 133.7 134.2 463.5
08/05 14:40 14.1 89 10.8 12.3 20 28 1027 0.4 24.3 30.0 49.5 130.1 129.5 447.2
08/05 14:30 14.6 85 10.64 12.1 24 33 1026.9 0.4 23.9 29.6 48.5 127.5 126.4 436.3
08/05 14:20 15.7 82 10.97 12.6 19 26 1026.9 0.4 24.5 29.8 49.2 129.4 129.2 446.4
08/05 14:10 15.7 82 10.97 12.6 26 28 1026.8 0.4 24.5 29.8 49.2 129.4 129.2 446.3
08/05 14:00 14.7 90 11.33 13.1 20 28 1026.9 0.4 25.4 30.8 51.4 135.3 136.1 470.3
08/05 13:50 14.6 88 11.01 12.6 22 26 1027 0.4 24.7 30.2 50.1 131.7 131.7 454.8
08/05 13:40 14.7 86 10.83 12.4 19 22 1027 0.4 24.3 29.9 49.3 129.5 128.9 445.2
08/05 13:30 14.6 89 11.14 12.8 24 37 1027.1 0.4 25.0 30.5 50.7 133.3 133.6 461.4
08/05 13:20 14.6 87 10.89 12.5 22 28 1027.1 0.4 24.4 30.0 49.6 130.4 130.0 448.8
08/05 13:10 14.8 93 11.78 13.7 22 26 1027.1 0.4 26.3 31.5 53.4 140.5 142.5 492.6
08/05 13:00 14.1 93 11.29 13 24 43 1027.2 0.4 25.3 30.9 51.7 135.9 136.6 472.0
08/05 12:50 15.5 80 10.57 12.1 26 30 1027.2 0 23.7 29.2 47.7 125.2 124.0 428.0
08/05 12:40 14.9 85 10.83 12.4 19 24 1027.4 0 24.3 29.8 49.1 129.2 128.6 444.2
08/05 12:30 15.2 79 10.25 11.6 28 37 1027.4 0 23.0 28.7 46.5 122.1 120.0 414.1
08/05 12:20 15.8 75 10.1 11.4 28 32 1027.4 0 22.7 28.3 45.5 119.5 117.0 403.8
08/05 12:10 15.2 78 10.12 11.4 24 32 1027.5 0 22.7 28.5 45.9 120.7 118.2 407.9
08/05 12:00 15.1 85 10.97 12.6 22 28 1027.7 0 24.6 30.0 49.6 130.5 130.3 450.1
08/05 11:50 13.9 90 10.79 12.3 24 26 1027.9 0 24.2 30.1 49.6 130.5 129.8 448.2
08/05 11:40 14.4 88 10.88 12.4 22 30 1028 0 24.4 30.1 49.7 130.7 130.3 449.8
08/05 11:30 14.1 90 10.92 12.5 22 33 1028 0 24.5 30.3 50.1 131.7 131.3 453.6
08/05 11:20 14.3 87 10.69 12.2 24 32 1027.9 0 24.0 29.8 48.9 128.6 127.7 440.9
08/05 11:10 14.4 92 11.37 13.1 19 24 1027.8 0 25.5 31.0 51.9 136.4 137.3 474.4
08/05 11:00 14.3 85 10.44 11.8 24 33 1027.8 0 23.5 29.4 47.9 125.8 124.1 428.4
08/05 10:50 14.9 79 10.07 11.3 26 30 1027.7 0 22.7 28.5 45.9 120.6 118.0 407.1
08/05 10:40 14.7 84 10.58 12 24 30 1027.7 0 23.8 29.5 48.2 126.7 125.5 433.1
08/05 10:30 13.7 90 10.66 12.1 20 30 1027.8 0 24.0 30.0 49.2 129.3 128.3 442.8
08/05 10:20 13.9 87 10.43 11.8 19 22 1027.8 0 23.5 29.5 48.1 126.3 124.7 430.2
08/05 10:10 14.5 84 10.45 11.8 13 20 1027.7 0 23.5 29.3 47.8 125.5 124.0 427.8
08/05 10:00 14 83 10.01 11.2 22 30 1027.6 0 22.6 28.7 46.2 121.3 118.6 408.9
08/05 09:50 13.9 86 10.31 11.6 24 30 1027.7 0 23.2 29.3 47.5 124.9 122.9 424.2
08/05 09:40 13.3 90 10.4 11.7 19 22 1027.9 0 23.4 29.7 48.3 126.9 125.2 432.0
08/05 09:30 13.2 90 10.33 11.6 20 28 1028.1 0 23.3 29.6 48.1 126.3 124.4 429.2
08/05 09:20 13.2 90 10.33 11.6 19 26 1028.1 0 23.3 29.6 48.1 126.3 124.4 429.2
08/05 09:10 13.2 93 10.68 12.1 20 24 1028.1 0 24.1 30.2 49.6 130.4 129.4 446.8
08/05 09:00 12.7 95 10.58 11.9 19 26 1028.1 0 23.9 30.2 49.5 130.1 128.8 444.6
08/05 08:50 12.6 93 10.29 11.5 22 26 1028.1 0.2 23.3 29.7 48.3 126.8 124.8 430.5
08/05 08:40 13.1 90 10.27 11.5 13 15 1027.9 0.2 23.2 29.5 47.9 125.7 123.7 426.7
08/05 08:30 13 90 10.21 11.4 17 26 1027.8 0.2 23.1 29.4 47.7 125.2 123.0 424.2
08/05 08:20 12.9 90 10.14 11.3 19 22 1027.8 0.2 22.9 29.3 47.4 124.6 122.1 421.2
08/05 08:10 12.8 91 10.19 11.4 17 20 1027.7 0.2 23.0 29.4 47.7 125.3 123.0 424.2
08/05 08:00 12.5 91 10.01 11.1 19 28 1027.5 0.2 22.7 29.2 47.1 123.7 120.9 416.8
08/05 07:50 12.6 91 10.07 11.2 22 30 1027.3 0.2 22.8 29.3 47.3 124.2 121.6 419.2
08/05 07:40 12.5 92 10.12 11.2 13 17 1027.2 0.2 22.9 29.4 47.5 124.9 122.4 422.2
08/05 07:30 12.4 92 10.05 11.1 15 20 1027.1 0.2 22.8 29.3 47.3 124.2 121.6 419.2
08/05 07:20 12.3 92 9.99 11 17 20 1026.9 0.2 22.6 29.2 47.1 123.7 120.9 416.7
08/05 07:10 12.2 93 10.04 11.1 17 20 1026.8 0 22.7 29.4 47.4 124.4 121.7 419.7
08/05 07:00 12.2 93 10.04 11.1 17 30 1026.7 0 22.7 29.3 47.4 124.4 121.7 419.7
08/05 06:50 12.2 94 10.14 11.3 13 19 1026.6 0 23.0 29.5 47.8 125.5 123.1 424.7
08/05 06:40 12.2 94 10.14 11.3 15 15 1026.4 0 23.0 29.5 47.8 125.5 123.1 424.6
08/05 06:30 12.2 94 10.14 11.3 15 20 1026.3 0 23.0 29.5 47.8 125.5 123.1 424.6
08/05 06:20 12.2 95 10.25 11.4 13 20 1026.3 0 23.2 29.7 48.3 126.8 124.7 430.1
08/05 06:10 12.3 95 10.32 11.5 15 19 1026.4 0 23.3 29.8 48.5 127.5 125.6 433.1
08/05 06:00 12.2 94 10.14 11.3 11 13 1026.3 0 23.0 29.5 47.8 125.5 123.1 424.6
08/05 05:50 12.2 94 10.14 11.3 11 13 1026.3 0 23.0 29.5 47.8 125.5 123.1 424.6
08/05 05:40 12.2 94 10.14 11.3 13 15 1026.2 0 23.0 29.5 47.8 125.5 123.1 424.5
08/05 05:30 12.2 94 10.14 11.3 17 24 1026.2 0 23.0 29.5 47.8 125.5 123.1 424.5
08/05 05:20 12.2 95 10.25 11.4 17 20 1026 0 23.2 29.7 48.2 126.8 124.7 430.0
08/05 05:10 12.3 95 10.32 11.5 19 24 1026.1 0 23.3 29.8 48.5 127.4 125.5 433.0
08/05 05:00 12.3 95 10.32 11.5 15 22 1026.1 0 23.3 29.8 48.5 127.4 125.5 433.0
08/05 04:50 12.3 95 10.32 11.5 17 20 1025.9 0 23.3 29.8 48.5 127.4 125.5 433.0
08/05 04:40 12.3 95 10.32 11.5 22 26 1025.9 0 23.3 29.8 48.5 127.4 125.5 433.0
08/05 04:30 12.2 95 10.25 11.4 15 22 1025.9 0 23.2 29.7 48.2 126.7 124.7 430.0
08/05 04:20 12.2 96 10.36 11.6 13 15 1025.8 0 23.4 29.9 48.7 128.0 126.2 435.5
08/05 04:10 12.3 96 10.43 11.7 17 20 1025.7 0 23.6 30.0 49.0 128.7 127.1 438.5
08/05 04:00 12.3 95 10.32 11.5 15 20 1025.7 0 23.3 29.8 48.5 127.4 125.5 432.9
08/05 03:50 12.3 94 10.21 11.4 20 24 1025.7 0 23.1 29.6 48.0 126.1 123.9 427.4
08/05 03:40 12.3 95 10.32 11.5 17 20 1025.6 0 23.3 29.8 48.5 127.4 125.5 432.9
08/05 03:30 12.4 95 10.38 11.6 17 22 1025.6 0 23.5 29.8 48.7 127.9 126.2 435.3
08/05 03:20 12.3 94 10.21 11.4 13 17 1025.5 0 23.1 29.6 48.0 126.1 123.9 427.3
08/05 03:10 12.3 94 10.21 11.4 19 24 1025.5 0 23.1 29.6 48.0 126.1 123.9 427.3
08/05 03:00 12.2 94 10.14 11.3 17 24 1025.7 0 23.0 29.5 47.7 125.4 123.1 424.4
08/05 02:50 12.2 94 10.14 11.3 19 22 1025.7 0 23.0 29.5 47.7 125.4 123.1 424.4
08/05 02:40 12.2 95 10.25 11.4 15 15 1025.8 0 23.2 29.7 48.2 126.7 124.7 430.0
08/05 02:30 12.1 95 10.19 11.3 15 20 1025.8 0 23.1 29.6 48.0 126.2 124.0 427.5
08/05 02:20 12 95 10.13 11.2 15 19 1025.8 0 22.9 29.5 47.8 125.7 123.3 425.0
08/05 02:10 12 95 10.13 11.2 15 17 1025.8 0 22.9 29.5 47.8 125.7 123.3 425.0
08/05 02:00 12.1 96 10.3 11.5 17 26 1025.9 0 23.3 29.8 48.5 127.5 125.6 433.1
08/05 01:50 12.1 95 10.19 11.3 17 19 1026 0 23.1 29.6 48.0 126.2 124.0 427.6
08/05 01:40 12.2 95 10.25 11.4 17 20 1026.1 0 23.2 29.7 48.2 126.8 124.7 430.1
08/05 01:30 12.1 95 10.19 11.3 17 26 1026.1 0 23.1 29.6 48.0 126.2 124.0 427.6
08/05 01:20 12.1 95 10.19 11.3 17 20 1026.1 0 23.1 29.6 48.0 126.2 124.0 427.6
08/05 01:10 12.1 95 10.19 11.3 19 22 1026.1 0 23.1 29.6 48.0 126.2 124.0 427.6
08/05 01:00 12.1 94 10.08 11.2 17 22 1026.3 0 22.8 29.4 47.6 125.0 122.4 422.1
08/05 00:50 12.1 94 10.08 11.2 17 20 1026.4 0 22.8 29.4 47.6 125.0 122.4 422.1
08/05 00:40 12.2 94 10.14 11.3 17 20 1026.5 0 23.0 29.5 47.8 125.5 123.1 424.6
08/05 00:30 12.1 94 10.08 11.2 17 26 1026.4 0 22.8 29.4 47.6 125.0 122.4 422.1
08/05 00:20 12.2 92 9.93 10.9 17 20 1026.4 0 22.5 29.1 46.9 123.1 120.1 414.1
08/05 00:10 12.3 91 9.88 10.9 19 24 1026.5 0 22.4 29.0 46.6 122.3 119.3 411.1
08/05 00:00 12.6 87 9.63 10.5 24 35 1026.7 0 21.8 28.5 45.3 119.0 115.3 397.2
07/05 23:50 13 82 9.3 10 28 33 1026.6 0 21.1 27.8 43.7 114.7 110.1 379.1
07/05 23:40 12.8 83 9.3 10 26 32 1026.7 0 21.1 27.9 43.8 115.0 110.4 380.1

Last Refresh: 08-May-2026 16:20:42

Bureau of Meteorology